Time;durP1;ratioP1;P1;durP2;ratioP2;P2;SDS_P1;SDS_P2;PMS_P1;PMS_P2;Temp;Humidity;BMP_temperature;BMP_pressure;BME280_temperature;BME280_humidity;BME280_pressure;Samples;Min_cycle;Max_cycle;Signal;HPM_P1;HPM_P2
2022/09/21 00:00:00;;;;;;;6.68;4.50;;;;;;;9.06;74.10;100348.41;343750;28;1218;-71
2022/09/21 00:00:12;;;;;;;6.57;4.40;;;;;;;9.04;74.22;100347.56;342350;28;1088;-70
2022/09/21 00:00:25;;;;;;;6.10;4.28;;;;;;;9.02;74.20;100349.31;341953;28;1236;-70
2022/09/21 00:00:38;;;;;;;6.65;4.30;;;;;;;9.02;74.16;100351.06;343126;28;1096;-71
2022/09/21 00:00:50;;;;;;;7.05;4.47;;;;;;;9.03;74.49;100355.34;343725;28;1635;-71
2022/09/21 00:01:09;;;;;;;6.35;4.45;;;;;;;9.04;74.09;100352.75;343635;28;1233;-70
2022/09/21 00:01:27;;;;;;;7.40;4.50;;;;;;;9.06;74.01;100343.22;343632;28;1573;-71
2022/09/21 00:01:39;;;;;;;8.93;4.78;;;;;;;9.05;73.98;100345.81;342529;28;1751;-70
2022/09/21 00:01:51;;;;;;;8.88;4.78;;;;;;;9.05;73.75;100346.66;342318;28;1086;-70
2022/09/21 00:02:03;;;;;;;8.60;4.60;;;;;;;9.06;73.89;100343.22;342354;28;1292;-70
2022/09/21 00:02:15;;;;;;;7.35;4.40;;;;;;;9.08;73.94;100346.63;343207;28;1016;-70
2022/09/21 00:02:27;;;;;;;7.07;4.50;;;;;;;9.09;73.93;100343.16;343842;28;767;-70
2022/09/21 00:02:39;;;;;;;7.32;4.50;;;;;;;9.09;74.20;100345.75;343356;28;1012;-70
2022/09/21 00:02:55;;;;;;;7.95;4.63;;;;;;;9.07;74.19;100339.72;343889;28;798;-71
2022/09/21 00:03:08;;;;;;;8.45;4.80;;;;;;;9.07;73.90;100344.91;343649;28;1250;-70
2022/09/21 00:03:20;;;;;;;8.40;4.65;;;;;;;9.05;74.31;100348.41;342380;28;1067;-71
2022/09/21 00:03:32;;;;;;;7.05;4.25;;;;;;;9.05;74.16;100346.66;342217;28;1044;-72
2022/09/21 00:03:44;;;;;;;6.32;4.40;;;;;;;9.04;74.51;100344.13;343239;28;1437;-71
2022/09/21 00:04:01;;;;;;;5.95;4.55;;;;;;;9.03;74.32;100343.25;343760;28;947;-71
2022/09/21 00:04:13;;;;;;;6.55;4.60;;;;;;;9.05;74.20;100340.63;343766;28;1194;-70
2022/09/21 00:04:25;;;;;;;5.82;4.40;;;;;;;9.03;74.11;100340.66;343352;28;1043;-70
2022/09/21 00:04:37;;;;;;;7.47;4.47;;;;;;;9.02;74.20;100340.69;343680;28;1181;-69
2022/09/21 00:04:49;;;;;;;7.90;4.40;;;;;;;9.01;74.61;100347.59;344027;28;1060;-70
2022/09/21 00:05:01;;;;;;;8.02;4.43;;;;;;;9.02;74.31;100346.72;343421;28;1239;-71
2022/09/21 00:05:13;;;;;;;6.80;4.53;;;;;;;9.01;74.81;100345.00;343619;28;1095;-71
2022/09/21 00:05:26;;;;;;;7.65;4.53;;;;;;;8.99;74.76;100346.75;344571;28;1096;-70
2022/09/21 00:05:38;;;;;;;8.35;4.57;;;;;;;8.96;75.08;100347.66;343549;28;1066;-71
2022/09/21 00:05:50;;;;;;;7.95;4.70;;;;;;;8.96;75.28;100342.47;343641;28;1095;-71
2022/09/21 00:06:07;;;;;;;7.53;4.90;;;;;;;8.94;75.17;100343.41;343500;28;1042;-71
2022/09/21 00:06:21;;;;;;;7.18;4.90;;;;;;;8.97;74.97;100352.00;343599;28;1290;-70
2022/09/21 00:06:34;;;;;;;6.97;4.88;;;;;;;8.96;75.11;100347.66;343674;28;1075;-71
2022/09/21 00:06:46;;;;;;;6.75;4.82;;;;;;;8.96;74.83;100336.44;343756;28;1087;-71
2022/09/21 00:06:58;;;;;;;7.20;5.05;;;;;;;8.97;74.67;100348.53;343741;28;1209;-71
2022/09/21 00:07:10;;;;;;;7.55;5.05;;;;;;;8.95;75.09;100339.91;343550;28;1015;-70
2022/09/21 00:07:22;;;;;;;7.28;4.82;;;;;;;8.95;74.83;100345.09;344352;28;994;-70
2022/09/21 00:07:34;;;;;;;7.03;4.60;;;;;;;8.94;75.02;100343.41;343620;28;1042;-71
2022/09/21 00:07:47;;;;;;;7.13;4.47;;;;;;;8.92;75.26;100346.00;343988;28;757;-70
2022/09/21 00:08:01;;;;;;;8.02;4.60;;;;;;;8.89;75.24;100348.63;343780;28;1200;-70
2022/09/21 00:08:13;;;;;;;7.78;4.63;;;;;;;8.90;75.24;100347.75;342171;28;911;-70
2022/09/21 00:08:26;;;;;;;8.63;4.60;;;;;;;8.90;74.99;100341.72;342603;28;761;-71
2022/09/21 00:08:38;;;;;;;8.32;4.65;;;;;;;8.92;74.96;100340.81;342406;28;1028;-71
2022/09/21 00:08:51;;;;;;;6.05;4.68;;;;;;;8.93;75.03;100344.25;342530;28;981;-70
2022/09/21 00:09:04;;;;;;;6.72;4.63;;;;;;;8.94;74.81;100343.41;342310;28;1048;-70
2022/09/21 00:09:16;;;;;;;7.10;4.60;;;;;;;8.94;74.78;100348.59;342359;28;1048;-71
2022/09/21 00:09:28;;;;;;;8.00;4.55;;;;;;;8.93;74.46;100347.72;342340;28;1056;-71
2022/09/21 00:09:40;;;;;;;7.55;4.38;;;;;;;8.94;73.85;100353.78;342603;28;826;-71
2022/09/21 00:09:52;;;;;;;6.95;4.35;;;;;;;8.95;74.08;100350.28;343628;28;1060;-71
2022/09/21 00:10:04;;;;;;;7.60;4.50;;;;;;;8.96;74.07;100346.81;344003;28;904;-70
2022/09/21 00:10:19;;;;;;;7.80;4.60;;;;;;;8.95;73.81;100351.16;343197;28;1114;-71
2022/09/21 00:10:31;;;;;;;6.78;4.72;;;;;;;8.96;73.83;100346.81;344665;28;1007;-70
2022/09/21 00:10:49;;;;;;;7.10;4.70;;;;;;;8.92;73.89;100352.94;345368;28;754;-71
2022/09/21 00:11:03;;;;;;;6.68;4.40;;;;;;;8.91;74.08;100352.06;344801;28;1051;-70
2022/09/21 00:11:24;;;;;;;5.82;4.50;;;;;;;8.88;74.40;100348.66;345296;28;814;-70
2022/09/21 00:11:36;;;;;;;6.82;4.50;;;;;;;8.85;74.64;100349.56;344791;28;1215;-71
2022/09/21 00:11:48;;;;;;;7.35;4.50;;;;;;;8.83;74.49;100347.88;345038;28;1119;-70
2022/09/21 00:12:01;;;;;;;7.18;4.45;;;;;;;8.85;74.82;100351.28;344825;28;1247;-71
2022/09/21 00:12:14;;;;;;;7.38;4.45;;;;;;;8.84;74.90;100352.19;345075;28;1011;-70
2022/09/21 00:12:26;;;;;;;8.07;4.60;;;;;;;8.85;74.76;100351.28;345164;28;931;-70
2022/09/21 00:12:38;;;;;;;7.57;4.88;;;;;;;8.86;74.78;100351.28;345327;28;1047;-70
2022/09/21 00:12:50;;;;;;;7.32;4.93;;;;;;;8.86;74.82;100351.28;345116;28;1106;-70
2022/09/21 00:13:03;;;;;;;6.93;4.82;;;;;;;8.82;74.50;100348.75;344952;28;1185;-70
2022/09/21 00:13:16;;;;;;;7.07;4.70;;;;;;;8.82;74.87;100351.34;345111;28;1023;-70
2022/09/21 00:13:32;;;;;;;6.82;4.50;;;;;;;8.86;74.77;100355.63;342737;28;941;-70
2022/09/21 00:13:45;;;;;;;6.50;4.57;;;;;;;8.87;74.63;100358.16;342254;28;1446;-71
2022/09/21 00:14:01;;;;;;;6.53;4.50;;;;;;;8.88;74.51;100348.66;342295;28;1154;-70
2022/09/21 00:14:14;;;;;;;8.00;4.57;;;;;;;8.89;74.33;100350.38;342219;28;1170;-70
2022/09/21 00:14:26;;;;;;;7.47;4.60;;;;;;;8.87;74.30;100350.38;341942;28;1271;-71
2022/09/21 00:14:38;;;;;;;7.40;4.43;;;;;;;8.88;74.14;100352.13;342590;28;1020;-71
2022/09/21 00:14:50;;;;;;;7.65;4.30;;;;;;;8.88;73.77;100353.84;342295;28;1188;-71
2022/09/21 00:15:02;;;;;;;7.63;4.35;;;;;;;8.90;73.71;100352.09;342099;28;1079;-70
2022/09/21 00:15:16;;;;;;;6.55;4.30;;;;;;;8.90;74.15;100352.94;342754;28;1043;-71
2022/09/21 00:15:30;;;;;;;7.07;4.35;;;;;;;8.91;74.11;100353.78;343415;28;1043;-70
2022/09/21 00:15:42;;;;;;;6.65;4.22;;;;;;;8.93;74.08;100355.50;344928;28;1177;-70
2022/09/21 00:15:55;;;;;;;7.13;4.30;;;;;;;8.94;74.04;100356.34;345205;28;1686;-71
2022/09/21 00:16:08;;;;;;;9.82;4.63;;;;;;;8.92;73.72;100356.38;344847;28;1067;-70
2022/09/21 00:16:21;;;;;;;9.52;4.82;;;;;;;8.93;74.04;100357.22;344870;28;1273;-71
2022/09/21 00:16:33;;;;;;;8.13;4.95;;;;;;;8.93;73.84;100357.22;345172;28;1728;-70
2022/09/21 00:16:45;;;;;;;6.75;4.70;;;;;;;8.91;73.45;100354.66;344866;28;1063;-70
2022/09/21 00:16:58;;;;;;;5.43;4.18;;;;;;;8.93;73.69;100354.63;345334;28;1103;-70
2022/09/21 00:17:10;;;;;;;5.55;4.25;;;;;;;8.94;73.81;100353.78;345077;28;1110;-71
2022/09/21 00:17:22;;;;;;;5.85;4.38;;;;;;;8.93;73.88;100357.22;344974;28;1574;-70
2022/09/21 00:17:35;;;;;;;6.13;4.53;;;;;;;8.93;74.11;100357.22;343567;28;1177;-70
2022/09/21 00:17:51;;;;;;;7.07;4.43;;;;;;;8.91;74.32;100359.84;343987;28;1122;-70
2022/09/21 00:18:03;;;;;;;7.20;4.28;;;;;;;8.91;74.01;100359.84;343864;28;993;-70
2022/09/21 00:18:16;;;;;;;6.25;4.10;;;;;;;8.93;74.04;100357.22;343615;28;1060;-70
2022/09/21 00:18:28;;;;;;;7.15;4.30;;;;;;;8.92;74.03;100355.53;343728;28;1258;-70
2022/09/21 00:18:40;;;;;;;7.60;4.43;;;;;;;8.93;74.14;100352.03;343367;28;1108;-71
2022/09/21 00:18:52;;;;;;;7.80;4.53;;;;;;;8.92;74.12;100355.53;343438;28;1050;-71
2022/09/21 00:19:05;;;;;;;7.20;4.40;;;;;;;8.89;74.00;100355.56;343626;28;1110;-70
2022/09/21 00:19:17;;;;;;;7.38;4.45;;;;;;;8.87;74.46;100358.16;343545;28;1020;-70
2022/09/21 00:19:29;;;;;;;6.53;4.35;;;;;;;8.86;74.58;100355.63;343676;28;1079;-70
2022/09/21 00:19:42;;;;;;;7.47;4.60;;;;;;;8.86;74.62;100358.22;343479;28;1092;-70
2022/09/21 00:19:56;;;;;;;7.72;4.60;;;;;;;8.86;74.58;100355.63;344752;28;1194;-71
2022/09/21 00:20:08;;;;;;;7.00;4.43;;;;;;;8.84;74.67;100352.19;344989;28;1047;-71
2022/09/21 00:20:20;;;;;;;7.43;4.32;;;;;;;8.87;74.84;100357.31;345092;28;1104;-68
2022/09/21 00:20:32;;;;;;;7.68;4.57;;;;;;;8.85;74.66;100353.88;345112;28;1177;-71
2022/09/21 00:20:45;;;;;;;6.72;4.57;;;;;;;8.85;74.88;100348.69;344908;28;1115;-71
2022/09/21 00:20:58;;;;;;;6.38;4.50;;;;;;;8.82;75.58;100354.78;343834;28;980;-71
2022/09/21 00:21:12;;;;;;;7.32;4.40;;;;;;;8.83;75.48;100355.66;343677;28;1087;-71
2022/09/21 00:21:27;;;;;;;8.38;4.32;;;;;;;8.84;75.27;100357.38;343312;28;1177;-71
2022/09/21 00:21:39;;;;;;;7.57;4.40;;;;;;;8.87;75.15;100354.72;343371;28;1167;-71
2022/09/21 00:21:54;;;;;;;6.57;4.32;;;;;;;8.86;74.92;100355.63;342117;28;1060;-71
2022/09/21 00:22:06;;;;;;;6.18;4.50;;;;;;;8.84;74.99;100357.38;342466;28;1026;-71
2022/09/21 00:22:18;;;;;;;6.13;4.50;;;;;;;8.84;75.03;100352.19;342313;28;1044;-71
2022/09/21 00:22:31;;;;;;;6.20;4.38;;;;;;;8.83;74.92;100353.91;342381;28;1558;-70
2022/09/21 00:22:43;;;;;;;7.32;4.40;;;;;;;8.83;75.17;100353.91;342073;28;1260;-71
2022/09/21 00:22:55;;;;;;;7.63;4.57;;;;;;;8.86;75.00;100355.63;342251;28;1068;-70
2022/09/21 00:23:07;;;;;;;7.03;4.72;;;;;;;8.86;74.98;100355.63;343779;28;1173;-71
2022/09/21 00:23:19;;;;;;;5.63;4.55;;;;;;;8.86;75.09;100355.63;343475;28;1038;-71
2022/09/21 00:23:34;;;;;;;5.25;4.38;;;;;;;8.87;75.10;100352.13;342185;28;1143;-70
2022/09/21 00:23:46;;;;;;;5.43;4.35;;;;;;;8.88;74.82;100359.03;342411;28;1775;-71
2022/09/21 00:23:58;;;;;;;5.85;4.40;;;;;;;8.88;74.86;100353.84;343422;28;1067;-71
2022/09/21 00:24:11;;;;;;;6.63;4.65;;;;;;;8.88;74.88;100353.84;342266;28;1046;-71
2022/09/21 00:24:23;;;;;;;7.35;4.63;;;;;;;8.84;75.19;100352.19;342347;28;1071;-71
2022/09/21 00:24:35;;;;;;;8.30;4.63;;;;;;;8.82;75.61;100348.75;342382;28;1171;-72
2022/09/21 00:24:47;;;;;;;8.23;4.80;;;;;;;8.80;75.59;100352.22;341913;28;1107;-70
2022/09/21 00:25:02;;;;;;;7.32;4.70;;;;;;;8.80;75.42;100356.56;342239;28;1033;-71
2022/09/21 00:25:14;;;;;;;6.07;4.40;;;;;;;8.78;75.46;100348.78;342388;28;1230;-70
2022/09/21 00:25:26;;;;;;;6.68;4.53;;;;;;;8.78;75.37;100351.38;342232;28;1231;-71
2022/09/21 00:25:38;;;;;;;7.00;4.72;;;;;;;8.79;75.41;100355.72;343320;28;966;-70
2022/09/21 00:25:50;;;;;;;7.65;4.95;;;;;;;8.79;75.10;100352.22;343497;28;1043;-71
2022/09/21 00:26:04;;;;;;;7.93;4.93;;;;;;;8.78;75.00;100356.56;343649;28;1043;-71
2022/09/21 00:26:19;;;;;;;7.68;4.65;;;;;;;8.79;75.15;100355.72;344415;28;1176;-71
2022/09/21 00:26:31;;;;;;;6.90;4.55;;;;;;;8.79;75.32;100355.72;343653;28;1042;-70
2022/09/21 00:26:43;;;;;;;7.05;4.65;;;;;;;8.75;75.52;100354.03;343544;28;1040;-71
2022/09/21 00:26:55;;;;;;;7.53;4.80;;;;;;;8.75;75.83;100351.44;343360;28;1082;-69
2022/09/21 00:27:07;;;;;;;7.32;4.50;;;;;;;8.77;75.92;100356.59;343698;28;1007;-69
2022/09/21 00:27:19;;;;;;;6.40;4.40;;;;;;;8.74;75.65;100352.31;343349;28;1021;-71
2022/09/21 00:27:31;;;;;;;6.55;4.40;;;;;;;8.74;75.95;100352.31;343638;28;960;-70
2022/09/21 00:27:43;;;;;;;7.53;4.55;;;;;;;8.75;75.76;100348.84;343498;28;1024;-70
2022/09/21 00:27:55;;;;;;;7.03;4.40;;;;;;;8.75;75.70;100347.97;343781;28;1064;-70
2022/09/21 00:28:07;;;;;;;7.07;4.50;;;;;;;8.73;75.89;100353.19;342519;28;1165;-70
2022/09/21 00:28:19;;;;;;;6.28;4.70;;;;;;;8.71;75.87;100356.66;342424;28;1243;-70
2022/09/21 00:28:31;;;;;;;6.28;4.80;;;;;;;8.70;75.80;100350.63;342409;28;1250;-71
2022/09/21 00:28:43;;;;;;;5.97;4.65;;;;;;;8.72;75.70;100354.06;343558;28;1172;-70
2022/09/21 00:28:58;;;;;;;6.35;4.60;;;;;;;8.73;75.42;100355.78;343883;28;748;-70
2022/09/21 00:29:11;;;;;;;6.32;4.40;;;;;;;8.74;75.48;100356.63;342360;28;1082;-71
2022/09/21 00:29:23;;;;;;;6.20;4.65;;;;;;;8.75;75.34;100358.34;342218;28;1231;-70
2022/09/21 00:29:34;;;;;;;8.45;5.13;;;;;;;8.75;75.33;100358.34;342062;28;1066;-71
2022/09/21 00:29:47;;;;;;;9.43;5.20;;;;;;;8.75;75.03;100356.63;342102;28;1100;-71
2022/09/21 00:30:01;;;;;;;8.32;4.90;;;;;;;8.77;75.03;100357.47;342109;28;1025;-70
2022/09/21 00:30:14;;;;;;;7.47;4.82;;;;;;;8.79;74.99;100360.00;343185;28;1039;-70
2022/09/21 00:30:26;;;;;;;7.20;4.60;;;;;;;8.78;74.74;100355.72;343486;28;1088;-71
2022/09/21 00:30:38;;;;;;;7.43;4.45;;;;;;;8.79;74.65;100357.41;343816;28;1075;-70
2022/09/21 00:30:50;;;;;;;6.63;4.30;;;;;;;8.79;74.82;100355.72;342729;28;1203;-70
2022/09/21 00:31:09;;;;;;;7.72;4.55;;;;;;;8.82;74.53;100359.13;341816;28;1087;-70
2022/09/21 00:31:22;;;;;;;8.60;4.93;;;;;;;8.83;74.41;100360.84;342043;28;1044;-70
2022/09/21 00:31:34;;;;;;;7.50;4.80;;;;;;;8.84;74.49;100352.19;342140;28;1096;-71
2022/09/21 00:31:46;;;;;;;7.07;4.53;;;;;;;8.85;74.46;100364.25;342414;28;1115;-71
2022/09/21 00:31:59;;;;;;;7.15;4.53;;;;;;;8.85;74.29;100364.25;342424;28;1086;-71
2022/09/21 00:32:11;;;;;;;8.13;4.70;;;;;;;8.86;74.64;100358.22;343956;28;733;-71
2022/09/21 00:32:24;;;;;;;8.32;4.70;;;;;;;8.86;74.06;100360.81;343637;28;1223;-70
2022/09/21 00:32:38;;;;;;;7.20;4.40;;;;;;;8.84;74.60;100363.41;343660;28;1067;-70
2022/09/21 00:32:52;;;;;;;7.93;4.40;;;;;;;8.78;74.80;100364.34;343722;28;1235;-70
2022/09/21 00:33:04;;;;;;;6.70;4.40;;;;;;;8.80;74.63;100362.59;344620;28;1019;-70
2022/09/21 00:33:16;;;;;;;6.07;4.40;;;;;;;8.79;74.76;100365.19;344753;28;1301;-72
2022/09/21 00:33:28;;;;;;;6.75;4.50;;;;;;;8.78;74.61;100359.16;345166;28;1054;-70
2022/09/21 00:33:42;;;;;;;6.30;4.45;;;;;;;8.79;75.05;100354.81;344658;28;1346;-70
2022/09/21 00:33:54;;;;;;;6.53;4.35;;;;;;;8.77;75.01;100360.06;343811;28;1199;-70
2022/09/21 00:34:06;;;;;;;6.65;4.45;;;;;;;8.75;75.19;100361.81;343640;28;1051;-70
2022/09/21 00:34:18;;;;;;;6.13;4.35;;;;;;;8.73;75.28;100366.16;343434;28;1080;-71
2022/09/21 00:34:31;;;;;;;5.88;4.22;;;;;;;8.72;75.42;100369.63;342189;28;1039;-71
2022/09/21 00:34:43;;;;;;;8.02;4.38;;;;;;;8.72;75.21;100363.59;341966;28;1159;-70
2022/09/21 00:34:55;;;;;;;9.20;4.38;;;;;;;8.71;75.27;100362.72;341905;28;1264;-70
2022/09/21 00:35:08;;;;;;;8.90;4.10;;;;;;;8.72;75.20;100359.25;342240;28;1024;-70
2022/09/21 00:35:20;;;;;;;7.57;4.03;;;;;;;8.72;75.27;100364.44;342045;28;1168;-71
2022/09/21 00:35:33;;;;;;;6.45;4.20;;;;;;;8.72;75.09;100366.16;342431;28;1308;-70
2022/09/21 00:35:45;;;;;;;5.95;4.10;;;;;;;8.70;75.12;100363.59;342249;28;1178;-71
2022/09/21 00:36:03;;;;;;;5.38;3.97;;;;;;;8.69;75.40;100359.31;342468;28;1722;-69
2022/09/21 00:36:17;;;;;;;5.75;4.18;;;;;;;8.70;75.47;100366.19;341212;29;857;-71
2022/09/21 00:36:29;;;;;;;7.13;4.28;;;;;;;8.72;75.09;100361.00;341153;28;1164;-70
2022/09/21 00:36:41;;;;;;;8.60;4.30;;;;;;;8.75;75.22;100364.41;342197;28;1056;-70
2022/09/21 00:36:53;;;;;;;10.02;4.28;;;;;;;8.75;75.16;100364.41;341085;29;939;-71
2022/09/21 00:37:08;;;;;;;8.85;4.10;;;;;;;8.74;75.11;100365.25;340806;29;1030;-71
2022/09/21 00:37:19;;;;;;;7.43;4.07;;;;;;;8.75;75.14;100359.22;340656;29;1018;-69
2022/09/21 00:37:32;;;;;;;5.95;4.22;;;;;;;8.75;75.06;100359.22;340799;29;1120;-69
2022/09/21 00:37:44;;;;;;;5.20;4.18;;;;;;;8.75;75.07;100359.22;340951;29;1048;-70
2022/09/21 00:38:00;;;;;;;4.82;4.07;;;;;;;8.75;74.84;100366.13;340689;29;1182;-70
2022/09/21 00:38:12;;;;;;;4.70;4.07;;;;;;;8.74;74.83;100356.63;341083;29;1160;-71
2022/09/21 00:38:24;;;;;;;8.30;4.57;;;;;;;8.73;74.73;100366.16;341978;28;1013;-70
2022/09/21 00:38:37;;;;;;;9.30;4.68;;;;;;;8.72;74.83;100364.44;342621;28;1197;-70
2022/09/21 00:38:52;;;;;;;7.63;4.38;;;;;;;8.72;74.68;100364.44;341109;29;1021;-70
2022/09/21 00:39:04;;;;;;;7.63;4.15;;;;;;;8.73;74.56;100366.16;342580;28;836;-70
2022/09/21 00:39:16;;;;;;;7.32;4.20;;;;;;;8.73;74.50;100360.09;342655;28;749;-70
2022/09/21 00:39:28;;;;;;;6.22;3.95;;;;;;;8.69;74.50;100353.25;342095;28;1000;-71
2022/09/21 00:39:40;;;;;;;5.95;3.80;;;;;;;8.68;74.48;100357.56;342374;28;1163;-69
2022/09/21 00:39:52;;;;;;;6.28;3.85;;;;;;;8.66;74.69;100364.50;342441;28;1184;-71
2022/09/21 00:40:05;;;;;;;5.45;3.78;;;;;;;8.66;74.85;100366.25;342382;28;1088;-71
2022/09/21 00:40:17;;;;;;;5.72;4.00;;;;;;;8.67;74.37;100355.88;342283;28;1114;-71
2022/09/21 00:40:30;;;;;;;5.95;4.20;;;;;;;8.70;74.43;100366.19;340683;29;1064;-71
2022/09/21 00:40:42;;;;;;;7.38;4.05;;;;;;;8.72;74.22;100361.84;340919;29;1185;-70
2022/09/21 00:40:54;;;;;;;7.00;3.63;;;;;;;8.74;74.42;100362.66;341855;28;1618;-71
2022/09/21 00:41:09;;;;;;;6.10;3.45;;;;;;;8.75;74.16;100361.81;342235;28;992;-70
2022/09/21 00:41:21;;;;;;;4.30;3.60;;;;;;;8.78;74.00;100355.72;342552;28;1176;-71
2022/09/21 00:41:33;;;;;;;4.95;3.72;;;;;;;8.80;74.06;100357.41;342475;28;936;-70
2022/09/21 00:41:45;;;;;;;6.03;3.88;;;;;;;8.81;73.88;100358.25;342624;28;741;-70
2022/09/21 00:41:57;;;;;;;7.28;3.92;;;;;;;8.82;73.44;100359.97;342169;28;1302;-71
2022/09/21 00:42:16;;;;;;;6.25;3.63;;;;;;;8.83;73.72;100363.41;342204;28;1176;-71
2022/09/21 00:42:31;;;;;;;4.28;3.47;;;;;;;8.80;73.49;100362.59;342355;28;1213;-70
2022/09/21 00:42:43;;;;;;;4.82;3.65;;;;;;;8.80;73.93;100361.75;343550;28;1040;-71
2022/09/21 00:43:15;;;;;;;5.38;4.05;;;;;;;8.77;73.81;100359.19;343567;28;1241;-71
2022/09/21 00:43:27;;;;;;;4.82;3.92;;;;;;;8.76;73.74;100355.72;343634;28;1323;-71
2022/09/21 00:43:45;;;;;;;4.97;4.03;;;;;;;8.78;73.53;100364.34;343421;28;1407;-70
2022/09/21 00:44:30;;;;;;;5.53;4.10;;;;;;;8.80;73.35;100361.75;344047;28;1011;-71
2022/09/21 00:44:43;;;;;;;4.75;3.53;;;;;;;8.75;73.66;100359.22;343582;28;1059;-70
2022/09/21 00:44:55;;;;;;;5.63;3.72;;;;;;;8.75;73.97;100367.00;341940;28;1113;-71
2022/09/21 00:45:19;;;;;;;6.35;3.90;;;;;;;8.77;73.78;100364.34;342307;28;1628;-71
2022/09/21 00:45:32;;;;;;;5.57;3.70;;;;;;;8.78;73.82;100364.34;341208;28;1087;-70
2022/09/21 00:45:48;;;;;;;6.70;3.90;;;;;;;8.79;73.58;100360.00;341167;29;1287;-70
2022/09/21 00:46:05;;;;;;;7.05;3.80;;;;;;;8.80;73.58;100366.91;340865;29;1017;-71
2022/09/21 00:46:30;;;;;;;5.75;3.67;;;;;;;8.82;73.66;100364.31;340898;29;1211;-70
2022/09/21 00:46:44;;;;;;;5.43;3.65;;;;;;;8.82;73.77;100365.16;341202;29;892;-69
2022/09/21 00:47:07;;;;;;;6.18;3.88;;;;;;;8.84;73.66;100362.56;341470;28;1263;-69
2022/09/21 00:47:41;;;;;;;5.72;4.03;;;;;;;8.85;73.47;100364.25;342341;28;1108;-70
2022/09/21 00:47:53;;;;;;;6.43;3.90;;;;;;;8.85;73.25;100359.06;342452;28;855;-71
2022/09/21 00:48:05;;;;;;;7.05;3.90;;;;;;;8.83;73.34;100363.41;342217;28;1026;-71
2022/09/21 00:48:18;;;;;;;7.40;3.92;;;;;;;8.82;73.38;100361.72;342082;28;1190;-71
2022/09/21 00:48:30;;;;;;;8.02;3.90;;;;;;;8.79;73.44;100360.88;342083;28;1072;-71
2022/09/21 00:48:42;;;;;;;6.18;3.92;;;;;;;8.80;73.24;100362.59;342868;28;1083;-70
2022/09/21 00:48:55;;;;;;;5.65;4.00;;;;;;;8.78;73.44;100358.31;343661;28;1058;-70
2022/09/21 00:49:08;;;;;;;4.90;3.85;;;;;;;8.78;73.62;100359.16;342636;28;1027;-70
2022/09/21 00:49:21;;;;;;;5.07;3.85;;;;;;;8.75;73.32;100369.59;341905;28;1292;-70
2022/09/21 00:49:35;;;;;;;5.45;3.80;;;;;;;8.76;73.45;100354.88;341890;28;1144;-70
2022/09/21 00:49:53;;;;;;;5.70;3.63;;;;;;;8.76;73.46;100366.09;340954;29;1132;-71
2022/09/21 00:50:10;;;;;;;5.40;3.47;;;;;;;8.74;73.16;100360.09;340863;29;1071;-70
2022/09/21 00:50:23;;;;;;;5.00;3.60;;;;;;;8.74;73.09;100362.66;340839;29;972;-70
2022/09/21 00:50:41;;;;;;;5.30;3.70;;;;;;;8.73;73.28;100360.97;340972;29;1231;-71
2022/09/21 00:50:58;;;;;;;6.10;3.90;;;;;;;8.71;73.62;100367.91;340962;29;1085;-70
2022/09/21 00:51:10;;;;;;;5.70;3.83;;;;;;;8.72;73.54;100359.25;341798;28;1008;-70
2022/09/21 00:51:22;;;;;;;6.07;3.70;;;;;;;8.72;73.34;100361.00;342002;28;1543;-69
2022/09/21 00:51:36;;;;;;;6.90;3.80;;;;;;;8.71;73.81;100362.72;340694;29;1073;-71
2022/09/21 00:51:52;;;;;;;6.47;3.83;;;;;;;8.68;73.91;100365.34;340957;29;1806;-70
2022/09/21 00:52:05;;;;;;;6.32;3.80;;;;;;;8.66;74.21;100358.47;340904;29;1057;-70
2022/09/21 00:52:19;;;;;;;6.38;3.80;;;;;;;8.63;74.29;100359.34;340721;29;1073;-70
2022/09/21 00:52:34;;;;;;;5.57;3.90;;;;;;;8.64;73.87;100361.09;341207;29;995;-71
2022/09/21 00:52:51;;;;;;;5.75;3.92;;;;;;;8.63;74.01;100359.34;340902;29;1274;-69
2022/09/21 00:53:04;;;;;;;7.43;3.90;;;;;;;8.64;73.63;100360.25;340930;29;1116;-70
2022/09/21 00:53:16;;;;;;;6.97;3.90;;;;;;;8.63;73.71;100359.34;339517;29;1032;-70
2022/09/21 00:53:28;;;;;;;4.43;3.67;;;;;;;8.63;73.83;100356.75;339840;29;1020;-69
2022/09/21 00:53:40;;;;;;;4.70;3.63;;;;;;;8.59;73.56;100357.69;340687;29;1401;-70
2022/09/21 00:53:59;;;;;;;4.60;3.50;;;;;;;8.59;73.56;100357.69;342071;28;781;-70
2022/09/21 00:54:20;;;;;;;5.60;3.60;;;;;;;8.54;73.89;100365.53;341934;28;1012;-71
2022/09/21 00:54:39;;;;;;;5.65;3.85;;;;;;;8.56;74.00;100361.19;341318;29;852;-70
2022/09/21 00:54:56;;;;;;;6.72;3.67;;;;;;;8.55;74.07;100358.59;341041;29;1019;-70
2022/09/21 00:55:18;;;;;;;5.80;3.50;;;;;;;8.54;74.11;100364.69;340865;29;1244;-70
2022/09/21 00:55:40;;;;;;;4.63;3.72;;;;;;;8.54;74.01;100364.69;342027;28;1073;-70
2022/09/21 00:55:56;;;;;;;5.38;3.50;;;;;;;8.57;73.83;100351.66;342099;28;1077;-71
2022/09/21 00:56:10;;;;;;;5.70;3.45;;;;;;;8.58;73.75;100350.81;342087;28;1291;-70
2022/09/21 00:56:23;;;;;;;5.60;3.72;;;;;;;8.58;73.54;100350.81;342138;28;1158;-70
2022/09/21 00:56:36;;;;;;;4.57;3.75;;;;;;;8.59;73.67;100353.38;343041;28;1540;-71
2022/09/21 00:56:48;;;;;;;4.65;3.65;;;;;;;8.60;73.46;100356.81;343421;28;1071;-70
2022/09/21 00:57:01;;;;;;;4.93;3.50;;;;;;;8.60;73.74;100354.22;343250;28;726;-71
2022/09/21 00:57:15;;;;;;;4.63;3.35;;;;;;;8.62;73.53;100359.41;342327;28;1059;-70
2022/09/21 00:57:32;;;;;;;4.60;3.40;;;;;;;8.58;74.02;100355.97;342089;28;1225;-70
2022/09/21 00:57:50;;;;;;;5.32;3.45;;;;;;;8.58;74.54;100355.97;341978;28;901;-70
2022/09/21 00:58:08;;;;;;;7.00;3.50;;;;;;;8.54;75.04;100364.69;342146;28;1191;-70
2022/09/21 00:58:29;;;;;;;6.72;3.72;;;;;;;8.53;74.89;100362.94;342432;28;1049;-69
2022/09/21 00:58:45;;;;;;;6.07;3.75;;;;;;;8.50;75.45;100357.81;342050;28;1079;-70
2022/09/21 00:58:57;;;;;;;6.53;3.80;;;;;;;8.49;75.46;100363.88;342304;28;1068;-71
2022/09/21 00:59:12;;;;;;;5.95;3.83;;;;;;;8.51;75.32;100359.53;343976;28;748;-70
2022/09/21 00:59:24;;;;;;;6.30;4.10;;;;;;;8.53;74.86;100347.41;343977;28;820;-70
2022/09/21 00:59:43;;;;;;;5.80;3.83;;;;;;;8.54;74.84;100357.75;343681;28;1050;-70
2022/09/21 00:59:58;;;;;;;5.53;3.67;;;;;;;8.52;75.15;100362.09;343555;28;1048;-70
2022/09/21 01:00:11;;;;;;;6.28;3.90;;;;;;;8.52;75.16;100363.84;343701;28;1010;-70
2022/09/21 01:00:23;;;;;;;8.07;4.10;;;;;;;8.53;74.91;100362.94;343519;28;1074;-71
2022/09/21 01:00:36;;;;;;;8.15;4.15;;;;;;;8.54;74.75;100360.34;343382;28;1083;-70
2022/09/21 01:00:48;;;;;;;7.40;4.10;;;;;;;8.55;74.71;100361.19;343307;28;1313;-70
2022/09/21 01:01:00;;;;;;;7.32;4.18;;;;;;;8.54;75.17;100365.53;343907;28;1025;-71
2022/09/21 01:01:15;;;;;;;8.45;4.20;;;;;;;8.54;75.28;100356.91;343568;28;1076;-70
2022/09/21 01:01:27;;;;;;;8.73;4.13;;;;;;;8.50;75.39;100363.00;343654;28;1047;-70
2022/09/21 01:01:40;;;;;;;6.75;4.07;;;;;;;8.48;75.12;100364.75;343450;28;1099;-71
2022/09/21 01:01:52;;;;;;;6.20;4.50;;;;;;;8.50;75.03;100363.00;343567;28;1060;-70
2022/09/21 01:02:05;;;;;;;7.10;4.60;;;;;;;8.50;75.00;100360.41;343519;28;1054;-70
2022/09/21 01:02:17;;;;;;;6.38;3.97;;;;;;;8.51;74.88;100369.88;344003;28;1064;-70
2022/09/21 01:02:29;;;;;;;7.95;4.40;;;;;;;8.52;74.99;100358.66;343704;28;1114;-70
2022/09/21 01:02:41;;;;;;;7.43;4.55;;;;;;;8.53;74.72;100355.19;343318;28;1048;-70
2022/09/21 01:03:00;;;;;;;7.10;4.63;;;;;;;8.50;74.52;100357.81;343590;28;1061;-71
2022/09/21 01:03:12;;;;;;;6.45;4.28;;;;;;;8.49;74.58;100366.44;343267;28;1028;-70
2022/09/21 01:03:24;;;;;;;5.23;3.87;;;;;;;8.48;74.43;100360.44;343731;28;1284;-70
2022/09/21 01:03:36;;;;;;;4.35;3.60;;;;;;;8.50;74.51;100365.59;343762;28;1268;-70
2022/09/21 01:03:50;;;;;;;4.63;3.70;;;;;;;8.50;74.53;100363.84;343469;28;1048;-70
2022/09/21 01:04:05;;;;;;;5.30;3.97;;;;;;;8.53;74.44;100365.53;343568;28;1259;-70
2022/09/21 01:04:18;;;;;;;5.85;4.20;;;;;;;8.55;74.43;100363.78;342118;28;1049;-70
2022/09/21 01:04:31;;;;;;;5.60;4.13;;;;;;;8.56;74.22;100368.09;342143;28;1028;-70
2022/09/21 01:04:44;;;;;;;5.88;4.00;;;;;;;8.56;74.16;100368.09;341054;29;1954;-70
2022/09/21 01:04:57;;;;;;;5.80;3.80;;;;;;;8.52;74.49;100361.25;341285;29;777;-70
2022/09/21 01:05:10;;;;;;;6.45;3.80;;;;;;;8.50;74.55;100363.00;340763;29;1112;-70
2022/09/21 01:05:23;;;;;;;7.20;3.95;;;;;;;8.47;74.56;100365.63;340838;29;1283;-69
2022/09/21 01:05:35;;;;;;;7.25;4.05;;;;;;;8.51;74.57;100370.75;341214;29;777;-70
2022/09/21 01:05:47;;;;;;;5.80;4.10;;;;;;;8.49;74.71;100367.34;340988;29;1101;-71